Norwegian Dream — C6LG5 — position and weather

sailwx.info

Track history (hours):
 
Tides and Currents Weather Stations Pressure Air Temp Water Temp Dewpoint Dewpoint Depression Visibility Wind Speed Wind Dir Waves Ship Positions

Norwegian Dream

Operator: Norwegian Cruise Line

Last reported at 2019-Sep-16 18:00 UTC. Time now 2019-Sep-17 08:19 UTC.
Position N 25°00' E 124°30'.

Type: Ship. MMSI: 308272000.

Wind from 010 at 35 knots

Barometer 1007.0 mb
Air temperature 28.0 ° C
Visibility: greater than 5.4 NM
Dewpoint 22.4 ° C

Date/timePositionNaut miles runAvg speedWind from/ knotsBaromVisibWave heightAir tempDewpointWater temp
2019-Sep-16 18:00N 25°00' E 124°30'17013.3 010 / 351007.0 5.4 28.022.4
2019-Sep-16 05:15N 25°20' E 121°24'515.0
2019-Sep-16 04:56N 25°18' E 121°19'16515.0
2019-Sep-15 18:00N 24°06' E 118°36'1913.0 020 / 331008.010.8 28.022.4
2019-Sep-15 16:33N 24°16' E 118°19'116.0
2019-Sep-15 16:30N 24°16' E 118°18'815.3
2019-Sep-15 15:59N 24°20' E 118°10'714.0
2019-Sep-15 15:30N 24°25' E 118°05'4 8.3
2019-Sep-15 14:59N 24°29' E 118°04'0 0.0
2019-Sep-15 12:52N 24°29' E 118°04'0 0.0
2019-Sep-15 10:47N 24°29' E 118°04'0 0.0
2019-Sep-15 10:26N 24°29' E 118°04'0 0.0
2019-Sep-15 10:00N 24°29' E 118°04'0 0.0
2019-Sep-15 09:24N 24°29' E 118°04'1 2.4
2019-Sep-15 09:00N 24°29' E 118°03'510.5
2019-Sep-15 08:30N 24°24' E 118°06'611.7
2019-Sep-15 08:00N 24°20' E 118°11'714.3
2019-Sep-15 07:30N 24°18' E 118°18'16515.4
2019-Sep-14 20:50N 25°16' E 121°08'615.4
2019-Sep-14 20:28N 25°18' E 121°14'714.4
2019-Sep-14 19:57N 25°19' E 121°22'813.3
2019-Sep-14 19:20N 25°22' E 121°30'513.5
2019-Sep-14 18:59N 25°22' E 121°36'1113.4
2019-Sep-14 18:08N 25°21' E 121°48'325.3
2019-Sep-14 18:00N 25°18' E 121°48'148 6.2 020 / 191009.010.8 27.0
2019-Sep-13 18:00N 25°00' E 124°30'13513.4 360 / 211008.010.8 28.023.9
2019-Sep-13 07:57N 25°19' E 122°03'815.6
2019-Sep-13 07:26N 25°21' E 121°54'715.8
2019-Sep-13 06:59N 25°21' E 121°46'816.6
2019-Sep-13 06:29N 25°22' E 121°37'817.1
2019-Sep-13 05:59N 25°22' E 121°27'916.9
2019-Sep-13 05:29N 25°19' E 121°18'816.3
2019-Sep-13 05:00N 25°17' E 121°10'815.7
2019-Sep-13 04:29N 25°14' E 121°02'15414.7
2019-Sep-12 18:00N 24°06' E 118°30'1411.0 020 / 311009.010.8 28.022.4
2019-Sep-12 16:45N 24°15' E 118°18'313.5
2019-Sep-12 16:30N 24°16' E 118°15'714.2
2019-Sep-12 15:59N 24°21' E 118°09'613.0
2019-Sep-12 15:30N 24°25' E 118°04'4 0.8
2019-Sep-12 10:49N 24°29' E 118°04'0 0.0
2019-Sep-12 10:25N 24°29' E 118°04'0 0.0
2019-Sep-12 09:55N 24°29' E 118°04'0 0.0
2019-Sep-12 09:31N 24°29' E 118°04'3 6.0
2019-Sep-12 09:00N 24°26' E 118°03'612.2
2019-Sep-12 08:31N 24°22' E 118°08'5 9.2
2019-Sep-12 07:58N 24°19' E 118°12'510.6
2019-Sep-12 07:30N 24°17' E 118°17'15212.3
2019-Sep-11 19:10N 25°08' E 120°54'413.1
2019-Sep-11 18:50N 25°10' E 120°59'412.9
2019-Sep-11 18:29N 25°12' E 121°03'3 5.4
2019-Sep-11 18:00N 25°12' E 121°06'566.4 070 / 251012.010.8 28.023.9
2019-Sep-11 17:55N 25°15' E 121°10'612.8
2019-Sep-11 17:25N 25°18' E 121°17'613.4
2019-Sep-11 16:56N 25°20' E 121°23'612.9
2019-Sep-11 16:29N 25°22' E 121°30'713.7
2019-Sep-11 15:59N 25°22' E 121°37'713.7
2019-Sep-11 15:30N 25°20' E 121°44'714.1
2019-Sep-11 14:59N 25°17' E 121°51'713.4
2019-Sep-11 14:29N 25°15' E 121°58'713.9
2019-Sep-11 14:00N 25°12' E 122°05'714.4
2019-Sep-11 13:29N 25°10' E 122°13'78 4.0
2019-Sep-10 18:00N 24°36' E 123°30'8211.2 110 / 141013.010.8 28.020.930.0
2019-Sep-10 10:40N 25°11' E 122°08'312.4
2019-Sep-10 10:24N 25°12' E 122°05'511.7
2019-Sep-10 09:57N 25°15' E 121°59'511.2
2019-Sep-10 09:29N 25°17' E 121°54'611.1
2019-Sep-10 08:59N 25°19' E 121°49'511.2
2019-Sep-10 08:30N 25°20' E 121°43'711.3
2019-Sep-10 07:55N 25°22' E 121°36'611.4
2019-Sep-10 07:25N 25°23' E 121°29'511.4
2019-Sep-10 06:59N 25°21' E 121°24'611.8
2019-Sep-10 06:29N 25°19' E 121°18'612.0
2019-Sep-10 05:58N 25°16' E 121°12'1012.9
2019-Sep-10 05:09N 25°11' E 121°02'14813.2
2019-Sep-09 18:00N 24°06' E 118°36'1813.5 180 / 41010.010.8 28.022.4
2019-Sep-09 16:38N 24°13' E 118°18'214.2
2019-Sep-09 16:30N 24°14' E 118°16'714.5
2019-Sep-09 16:00N 24°20' E 118°11'713.8
2019-Sep-09 15:31N 24°25' E 118°05'5 9.5
2019-Sep-09 15:01N 24°29' E 118°04'0 0.0
2019-Sep-09 10:45N 24°29' E 118°04'0 0.0
2019-Sep-09 10:27N 24°29' E 118°04'0 0.0
2019-Sep-09 09:57N 24°29' E 118°04'0 0.0
2019-Sep-09 09:21N 24°29' E 118°04'1 2.5
2019-Sep-09 09:00N 24°29' E 118°03'510.6
2019-Sep-09 08:30N 24°24' E 118°06'612.0
2019-Sep-09 08:00N 24°20' E 118°11'712.9
2019-Sep-09 07:30N 24°15' E 118°16'612.3
2019-Sep-09 07:00N 24°11' E 118°21'14412.6
2019-Sep-08 19:35N 25°05' E 120°48'1313.0
2019-Sep-08 18:36N 25°11' E 121°01'213.2
2019-Sep-08 18:28N 25°11' E 121°02'613.3
2019-Sep-08 18:00N 25°14' E 121°09'3932.1
2019-Sep-08 18:00N 25°12' E 121°06'1020.9 200 / 81007.010.8 28.017.6
2019-Sep-08 17:29N 25°17' E 121°16'714.4
2019-Sep-08 17:00N 25°20' E 121°23'713.9
2019-Sep-08 16:29N 25°22' E 121°31'714.2
2019-Sep-08 16:00N 25°22' E 121°38'713.7
2019-Sep-08 15:29N 25°20' E 121°46'713.6
2019-Sep-08 14:58N 25°18' E 121°53'713.3
2019-Sep-08 14:28N 25°15' E 121°60'713.6
2019-Sep-08 13:56N 25°11' E 122°07'88 4.4
2019-Sep-07 18:00N 24°36' E 123°36'8912.6 300 / 81005.010.8 27.021.3
2019-Sep-07 10:52N 25°11' E 122°05'612.4
2019-Sep-07 10:23N 25°13' E 121°59'613.0
2019-Sep-07 09:56N 25°17' E 121°54'612.8
2019-Sep-07 09:30N 25°19' E 121°48'713.1
2019-Sep-07 09:00N 25°21' E 121°41'612.3
2019-Sep-07 08:28N 25°22' E 121°34'712.0
2019-Sep-07 07:55N 25°21' E 121°27'511.7
2019-Sep-07 07:30N 25°19' E 121°22'710.9
2019-Sep-07 06:53N 25°17' E 121°15'1011.7
2019-Sep-07 06:00N 25°13' E 121°05'1612.1
2019-Sep-07 04:41N 25°06' E 120°49'14013.1
2019-Sep-06 18:00N 24°06' E 118°30'   200 / 121003.010.8 28.022.4
Track history (hours):
 
Tides and Currents Weather Stations Pressure Air Temp Water Temp Dewpoint Dewpoint Depression Visibility Wind Speed Wind Dir Waves Ship Positions

Norwegian Dream

Operator: Norwegian Cruise Line

Last reported at 2019-Sep-16 18:00 UTC. Time now 2019-Sep-17 08:19 UTC.
Position N 25°00' E 124°30'.

Type: Ship. MMSI: 308272000.

Wind from 010 at 35 knots

Barometer 1007.0 mb
Air temperature 28.0 ° C
Visibility: greater than 5.4 NM
Dewpoint 22.4 ° C

Date/timePositionNaut miles runAvg speedWind from/ knotsBaromVisibWave heightAir tempDewpointWater temp
2019-Sep-16 18:00N 25°00' E 124°30'17013.3 010 / 351007.0 5.4 28.022.4
2019-Sep-16 05:15N 25°20' E 121°24'515.0
2019-Sep-16 04:56N 25°18' E 121°19'16515.0
2019-Sep-15 18:00N 24°06' E 118°36'1913.0 020 / 331008.010.8 28.022.4
2019-Sep-15 16:33N 24°16' E 118°19'116.0
2019-Sep-15 16:30N 24°16' E 118°18'815.3
2019-Sep-15 15:59N 24°20' E 118°10'714.0
2019-Sep-15 15:30N 24°25' E 118°05'4 8.3
2019-Sep-15 14:59N 24°29' E 118°04'0 0.0
2019-Sep-15 12:52N 24°29' E 118°04'0 0.0
2019-Sep-15 10:47N 24°29' E 118°04'0 0.0
2019-Sep-15 10:26N 24°29' E 118°04'0 0.0
2019-Sep-15 10:00N 24°29' E 118°04'0 0.0
2019-Sep-15 09:24N 24°29' E 118°04'1 2.4
2019-Sep-15 09:00N 24°29' E 118°03'510.5
2019-Sep-15 08:30N 24°24' E 118°06'611.7
2019-Sep-15 08:00N 24°20' E 118°11'714.3
2019-Sep-15 07:30N 24°18' E 118°18'16515.4
2019-Sep-14 20:50N 25°16' E 121°08'615.4
2019-Sep-14 20:28N 25°18' E 121°14'714.4
2019-Sep-14 19:57N 25°19' E 121°22'813.3
2019-Sep-14 19:20N 25°22' E 121°30'513.5
2019-Sep-14 18:59N 25°22' E 121°36'1113.4
2019-Sep-14 18:08N 25°21' E 121°48'325.3
2019-Sep-14 18:00N 25°18' E 121°48'148 6.2 020 / 191009.010.8 27.0
2019-Sep-13 18:00N 25°00' E 124°30'13513.4 360 / 211008.010.8 28.023.9
2019-Sep-13 07:57N 25°19' E 122°03'815.6
2019-Sep-13 07:26N 25°21' E 121°54'715.8
2019-Sep-13 06:59N 25°21' E 121°46'816.6
2019-Sep-13 06:29N 25°22' E 121°37'817.1
2019-Sep-13 05:59N 25°22' E 121°27'916.9
2019-Sep-13 05:29N 25°19' E 121°18'816.3
2019-Sep-13 05:00N 25°17' E 121°10'815.7
2019-Sep-13 04:29N 25°14' E 121°02'15414.7
2019-Sep-12 18:00N 24°06' E 118°30'1411.0 020 / 311009.010.8 28.022.4
2019-Sep-12 16:45N 24°15' E 118°18'313.5
2019-Sep-12 16:30N 24°16' E 118°15'714.2
2019-Sep-12 15:59N 24°21' E 118°09'613.0
2019-Sep-12 15:30N 24°25' E 118°04'4 0.8
2019-Sep-12 10:49N 24°29' E 118°04'0 0.0
2019-Sep-12 10:25N 24°29' E 118°04'0 0.0
2019-Sep-12 09:55N 24°29' E 118°04'0 0.0
2019-Sep-12 09:31N 24°29' E 118°04'3 6.0
2019-Sep-12 09:00N 24°26' E 118°03'612.2
2019-Sep-12 08:31N 24°22' E 118°08'5 9.2
2019-Sep-12 07:58N 24°19' E 118°12'510.6
2019-Sep-12 07:30N 24°17' E 118°17'15212.3
2019-Sep-11 19:10N 25°08' E 120°54'413.1
2019-Sep-11 18:50N 25°10' E 120°59'412.9
2019-Sep-11 18:29N 25°12' E 121°03'3 5.4
2019-Sep-11 18:00N 25°12' E 121°06'566.4 070 / 251012.010.8 28.023.9
2019-Sep-11 17:55N 25°15' E 121°10'612.8
2019-Sep-11 17:25N 25°18' E 121°17'613.4
2019-Sep-11 16:56N 25°20' E 121°23'612.9
2019-Sep-11 16:29N 25°22' E 121°30'713.7
2019-Sep-11 15:59N 25°22' E 121°37'713.7
2019-Sep-11 15:30N 25°20' E 121°44'714.1
2019-Sep-11 14:59N 25°17' E 121°51'713.4
2019-Sep-11 14:29N 25°15' E 121°58'713.9
2019-Sep-11 14:00N 25°12' E 122°05'714.4
2019-Sep-11 13:29N 25°10' E 122°13'78 4.0
2019-Sep-10 18:00N 24°36' E 123°30'8211.2 110 / 141013.010.8 28.020.930.0
2019-Sep-10 10:40N 25°11' E 122°08'312.4
2019-Sep-10 10:24N 25°12' E 122°05'511.7
2019-Sep-10 09:57N 25°15' E 121°59'511.2
2019-Sep-10 09:29N 25°17' E 121°54'611.1
2019-Sep-10 08:59N 25°19' E 121°49'511.2
2019-Sep-10 08:30N 25°20' E 121°43'711.3
2019-Sep-10 07:55N 25°22' E 121°36'611.4
2019-Sep-10 07:25N 25°23' E 121°29'511.4
2019-Sep-10 06:59N 25°21' E 121°24'611.8
2019-Sep-10 06:29N 25°19' E 121°18'612.0
2019-Sep-10 05:58N 25°16' E 121°12'1012.9
2019-Sep-10 05:09N 25°11' E 121°02'14813.2
2019-Sep-09 18:00N 24°06' E 118°36'1813.5 180 / 41010.010.8 28.022.4
2019-Sep-09 16:38N 24°13' E 118°18'214.2
2019-Sep-09 16:30N 24°14' E 118°16'714.5
2019-Sep-09 16:00N 24°20' E 118°11'713.8
2019-Sep-09 15:31N 24°25' E 118°05'5 9.5
2019-Sep-09 15:01N 24°29' E 118°04'0 0.0
2019-Sep-09 10:45N 24°29' E 118°04'0 0.0
2019-Sep-09 10:27N 24°29' E 118°04'0 0.0
2019-Sep-09 09:57N 24°29' E 118°04'0 0.0
2019-Sep-09 09:21N 24°29' E 118°04'1 2.5
2019-Sep-09 09:00N 24°29' E 118°03'510.6
2019-Sep-09 08:30N 24°24' E 118°06'612.0
2019-Sep-09 08:00N 24°20' E 118°11'712.9
2019-Sep-09 07:30N 24°15' E 118°16'612.3
2019-Sep-09 07:00N 24°11' E 118°21'14412.6
2019-Sep-08 19:35N 25°05' E 120°48'1313.0
2019-Sep-08 18:36N 25°11' E 121°01'213.2
2019-Sep-08 18:28N 25°11' E 121°02'613.3
2019-Sep-08 18:00N 25°14' E 121°09'3932.1
2019-Sep-08 18:00N 25°12' E 121°06'1020.9 200 / 81007.010.8 28.017.6
2019-Sep-08 17:29N 25°17' E 121°16'714.4
2019-Sep-08 17:00N 25°20' E 121°23'713.9
2019-Sep-08 16:29N 25°22' E 121°31'714.2
2019-Sep-08 16:00N 25°22' E 121°38'713.7
2019-Sep-08 15:29N 25°20' E 121°46'713.6
2019-Sep-08 14:58N 25°18' E 121°53'713.3
2019-Sep-08 14:28N 25°15' E 121°60'713.6
2019-Sep-08 13:56N 25°11' E 122°07'88 4.4
2019-Sep-07 18:00N 24°36' E 123°36'8912.6 300 / 81005.010.8 27.021.3
2019-Sep-07 10:52N 25°11' E 122°05'612.4
2019-Sep-07 10:23N 25°13' E 121°59'613.0
2019-Sep-07 09:56N 25°17' E 121°54'612.8
2019-Sep-07 09:30N 25°19' E 121°48'713.1
2019-Sep-07 09:00N 25°21' E 121°41'612.3
2019-Sep-07 08:28N 25°22' E 121°34'712.0
2019-Sep-07 07:55N 25°21' E 121°27'511.7
2019-Sep-07 07:30N 25°19' E 121°22'710.9
2019-Sep-07 06:53N 25°17' E 121°15'1011.7
2019-Sep-07 06:00N 25°13' E 121°05'1612.1
2019-Sep-07 04:41N 25°06' E 120°49'14013.1
2019-Sep-06 18:00N 24°06' E 118°30'   200 / 121003.010.8 28.022.4

Dump ship's entire track history